sensor_id;sensor_type;location;lat;lon;timestamp;P1;durP1;ratioP1;P2;durP2;ratioP2
31130;SDS011;20292;50.944;4.034;2022-10-04T00:04:56;24.25;;;12.43;;
31130;SDS011;20292;50.944;4.034;2022-10-04T00:07:28;24.05;;;12.25;;
31130;SDS011;20292;50.944;4.034;2022-10-04T00:12:50;22.05;;;12.55;;
31130;SDS011;20292;50.944;4.034;2022-10-04T00:15:25;22.85;;;11.90;;
31130;SDS011;20292;50.944;4.034;2022-10-04T00:18:00;24.40;;;12.13;;
31130;SDS011;20292;50.944;4.034;2022-10-04T00:25:48;22.10;;;11.73;;
31130;SDS011;20292;50.944;4.034;2022-10-04T00:41:35;22.83;;;12.00;;
31130;SDS011;20292;50.944;4.034;2022-10-04T00:44:38;21.92;;;11.40;;
31130;SDS011;20292;50.944;4.034;2022-10-04T00:47:22;19.85;;;11.63;;
31130;SDS011;20292;50.944;4.034;2022-10-04T00:50:12;25.08;;;12.18;;
31130;SDS011;20292;50.944;4.034;2022-10-04T00:52:53;24.05;;;11.80;;
31130;SDS011;20292;50.944;4.034;2022-10-04T00:55:35;20.98;;;11.40;;
31130;SDS011;20292;50.944;4.034;2022-10-04T00:58:13;23.70;;;11.85;;
31130;SDS011;20292;50.944;4.034;2022-10-04T01:00:44;23.25;;;11.35;;
31130;SDS011;20292;50.944;4.034;2022-10-04T01:03:14;23.15;;;12.07;;
31130;SDS011;20292;50.944;4.034;2022-10-04T01:05:52;23.05;;;11.88;;
31130;SDS011;20292;50.944;4.034;2022-10-04T01:08:28;18.98;;;11.50;;
31130;SDS011;20292;50.944;4.034;2022-10-04T01:11:15;22.50;;;12.52;;
31130;SDS011;20292;50.944;4.034;2022-10-04T01:13:55;22.40;;;12.20;;
31130;SDS011;20292;50.944;4.034;2022-10-04T01:16:26;24.63;;;12.02;;
31130;SDS011;20292;50.944;4.034;2022-10-04T01:18:53;23.95;;;11.95;;
31130;SDS011;20292;50.944;4.034;2022-10-04T01:21:27;25.65;;;12.55;;
31130;SDS011;20292;50.944;4.034;2022-10-04T01:28:59;20.05;;;11.93;;
31130;SDS011;20292;50.944;4.034;2022-10-04T01:31:48;23.52;;;13.20;;
31130;SDS011;20292;50.944;4.034;2022-10-04T01:34:20;24.40;;;12.82;;
31130;SDS011;20292;50.944;4.034;2022-10-04T01:36:47;22.05;;;12.43;;
31130;SDS011;20292;50.944;4.034;2022-10-04T01:39:16;28.02;;;13.18;;
31130;SDS011;20292;50.944;4.034;2022-10-04T01:41:51;25.55;;;12.73;;
31130;SDS011;20292;50.944;4.034;2022-10-04T01:46:51;23.35;;;13.50;;
31130;SDS011;20292;50.944;4.034;2022-10-04T01:49:20;26.80;;;14.13;;
31130;SDS011;20292;50.944;4.034;2022-10-04T01:51:56;22.83;;;13.38;;
31130;SDS011;20292;50.944;4.034;2022-10-04T01:54:41;28.27;;;14.52;;
31130;SDS011;20292;50.944;4.034;2022-10-04T01:57:17;28.13;;;14.63;;
31130;SDS011;20292;50.944;4.034;2022-10-04T01:59:55;25.65;;;14.38;;
31130;SDS011;20292;50.944;4.034;2022-10-04T02:02:42;27.45;;;14.57;;
31130;SDS011;20292;50.944;4.034;2022-10-04T02:05:15;27.52;;;14.40;;
31130;SDS011;20292;50.944;4.034;2022-10-04T02:07:45;27.85;;;14.65;;
31130;SDS011;20292;50.944;4.034;2022-10-04T02:10:15;27.58;;;14.10;;
31130;SDS011;20292;50.944;4.034;2022-10-04T02:12:44;30.08;;;14.68;;
31130;SDS011;20292;50.944;4.034;2022-10-04T02:15:12;24.30;;;13.75;;
31130;SDS011;20292;50.944;4.034;2022-10-04T02:17:39;28.23;;;14.60;;
31130;SDS011;20292;50.944;4.034;2022-10-04T02:20:25;26.55;;;14.65;;
31130;SDS011;20292;50.944;4.034;2022-10-04T02:22:56;25.83;;;14.80;;
31130;SDS011;20292;50.944;4.034;2022-10-04T02:25:26;28.65;;;15.68;;
31130;SDS011;20292;50.944;4.034;2022-10-04T02:27:53;31.52;;;15.88;;
31130;SDS011;20292;50.944;4.034;2022-10-04T02:30:19;30.52;;;15.70;;
31130;SDS011;20292;50.944;4.034;2022-10-04T02:32:45;28.80;;;16.00;;
31130;SDS011;20292;50.944;4.034;2022-10-04T02:35:28;27.48;;;14.52;;
31130;SDS011;20292;50.944;4.034;2022-10-04T02:40:48;32.42;;;14.55;;
31130;SDS011;20292;50.944;4.034;2022-10-04T02:43:55;28.88;;;14.95;;
31130;SDS011;20292;50.944;4.034;2022-10-04T02:46:40;26.48;;;14.30;;
31130;SDS011;20292;50.944;4.034;2022-10-04T02:49:33;28.90;;;14.63;;
31130;SDS011;20292;50.944;4.034;2022-10-04T02:57:13;25.27;;;14.32;;
31130;SDS011;20292;50.944;4.034;2022-10-04T02:59:41;29.13;;;14.57;;
31130;SDS011;20292;50.944;4.034;2022-10-04T03:02:23;30.25;;;16.27;;
31130;SDS011;20292;50.944;4.034;2022-10-04T03:04:52;27.73;;;15.40;;
31130;SDS011;20292;50.944;4.034;2022-10-04T03:07:22;27.67;;;15.40;;
31130;SDS011;20292;50.944;4.034;2022-10-04T03:09:49;26.58;;;15.85;;
31130;SDS011;20292;50.944;4.034;2022-10-04T03:12:15;25.20;;;14.90;;
31130;SDS011;20292;50.944;4.034;2022-10-04T03:14:41;27.55;;;14.95;;
31130;SDS011;20292;50.944;4.034;2022-10-04T03:17:08;22.73;;;15.07;;
31130;SDS011;20292;50.944;4.034;2022-10-04T03:19:33;26.77;;;15.48;;
31130;SDS011;20292;50.944;4.034;2022-10-04T03:22:02;31.98;;;15.40;;
31130;SDS011;20292;50.944;4.034;2022-10-04T03:24:45;28.00;;;15.43;;
31130;SDS011;20292;50.944;4.034;2022-10-04T03:27:14;33.85;;;15.90;;
31130;SDS011;20292;50.944;4.034;2022-10-04T03:29:55;31.58;;;17.60;;
31130;SDS011;20292;50.944;4.034;2022-10-04T03:32:23;29.05;;;15.75;;
31130;SDS011;20292;50.944;4.034;2022-10-04T03:34:56;33.63;;;17.13;;
31130;SDS011;20292;50.944;4.034;2022-10-04T03:37:25;26.85;;;14.60;;
31130;SDS011;20292;50.944;4.034;2022-10-04T03:39:53;30.60;;;15.23;;
31130;SDS011;20292;50.944;4.034;2022-10-04T03:42:24;25.42;;;15.60;;
31130;SDS011;20292;50.944;4.034;2022-10-04T03:44:53;28.70;;;15.65;;
31130;SDS011;20292;50.944;4.034;2022-10-04T03:47:21;30.80;;;15.82;;
31130;SDS011;20292;50.944;4.034;2022-10-04T03:49:54;28.60;;;15.63;;
31130;SDS011;20292;50.944;4.034;2022-10-04T03:52:26;26.27;;;14.57;;
31130;SDS011;20292;50.944;4.034;2022-10-04T03:55:02;33.33;;;15.90;;
31130;SDS011;20292;50.944;4.034;2022-10-04T03:57:30;27.75;;;15.73;;
31130;SDS011;20292;50.944;4.034;2022-10-04T03:59:58;27.33;;;15.52;;
31130;SDS011;20292;50.944;4.034;2022-10-04T04:07:39;29.58;;;15.25;;
31130;SDS011;20292;50.944;4.034;2022-10-04T04:10:30;27.75;;;15.15;;
31130;SDS011;20292;50.944;4.034;2022-10-04T04:15:47;34.72;;;16.70;;
31130;SDS011;20292;50.944;4.034;2022-10-04T04:18:23;30.58;;;15.65;;
31130;SDS011;20292;50.944;4.034;2022-10-04T04:20:51;28.17;;;15.77;;
31130;SDS011;20292;50.944;4.034;2022-10-04T04:23:25;26.60;;;14.88;;
31130;SDS011;20292;50.944;4.034;2022-10-04T04:25:52;29.73;;;15.57;;
31130;SDS011;20292;50.944;4.034;2022-10-04T04:31:00;37.33;;;15.73;;
31130;SDS011;20292;50.944;4.034;2022-10-04T04:34:14;28.73;;;15.23;;
31130;SDS011;20292;50.944;4.034;2022-10-04T04:36:23;31.00;;;15.27;;
31130;SDS011;20292;50.944;4.034;2022-10-04T04:38:49;31.05;;;15.27;;
31130;SDS011;20292;50.944;4.034;2022-10-04T04:41:33;30.20;;;14.95;;
31130;SDS011;20292;50.944;4.034;2022-10-04T04:44:00;32.38;;;14.85;;
31130;SDS011;20292;50.944;4.034;2022-10-04T04:46:26;28.98;;;15.57;;
31130;SDS011;20292;50.944;4.034;2022-10-04T04:48:56;34.97;;;16.02;;
31130;SDS011;20292;50.944;4.034;2022-10-04T04:51:26;23.92;;;15.13;;
31130;SDS011;20292;50.944;4.034;2022-10-04T04:53:52;34.08;;;15.45;;
31130;SDS011;20292;50.944;4.034;2022-10-04T04:56:21;26.55;;;15.07;;
31130;SDS011;20292;50.944;4.034;2022-10-04T04:58:50;28.02;;;15.27;;
31130;SDS011;20292;50.944;4.034;2022-10-04T05:01:30;29.90;;;15.32;;
31130;SDS011;20292;50.944;4.034;2022-10-04T05:04:03;23.40;;;13.82;;
31130;SDS011;20292;50.944;4.034;2022-10-04T05:06:33;30.90;;;14.20;;
31130;SDS011;20292;50.944;4.034;2022-10-04T05:09:00;30.63;;;14.43;;
31130;SDS011;20292;50.944;4.034;2022-10-04T05:11:28;26.17;;;14.45;;
31130;SDS011;20292;50.944;4.034;2022-10-04T05:14:00;31.00;;;15.20;;
31130;SDS011;20292;50.944;4.034;2022-10-04T05:16:42;23.98;;;14.10;;
31130;SDS011;20292;50.944;4.034;2022-10-04T05:21:54;26.70;;;13.80;;
31130;SDS011;20292;50.944;4.034;2022-10-04T05:24:23;29.52;;;14.48;;
31130;SDS011;20292;50.944;4.034;2022-10-04T05:27:00;25.48;;;13.75;;
31130;SDS011;20292;50.944;4.034;2022-10-04T05:29:30;31.95;;;14.20;;
31130;SDS011;20292;50.944;4.034;2022-10-04T05:32:14;24.77;;;13.25;;
31130;SDS011;20292;50.944;4.034;2022-10-04T05:34:47;31.45;;;13.57;;
31130;SDS011;20292;50.944;4.034;2022-10-04T05:37:36;27.92;;;14.18;;
31130;SDS011;20292;50.944;4.034;2022-10-04T05:40:42;24.50;;;12.48;;
31130;SDS011;20292;50.944;4.034;2022-10-04T05:43:21;27.48;;;13.23;;
31130;SDS011;20292;50.944;4.034;2022-10-04T05:48:54;33.45;;;15.75;;
31130;SDS011;20292;50.944;4.034;2022-10-04T05:54:22;25.65;;;13.18;;
31130;SDS011;20292;50.944;4.034;2022-10-04T05:56:58;27.10;;;13.32;;
31130;SDS011;20292;50.944;4.034;2022-10-04T06:02:29;29.48;;;13.48;;
31130;SDS011;20292;50.944;4.034;2022-10-04T06:21:23;25.02;;;11.63;;
31130;SDS011;20292;50.944;4.034;2022-10-04T06:23:57;31.30;;;11.95;;
31130;SDS011;20292;50.944;4.034;2022-10-04T06:26:28;24.83;;;11.55;;
31130;SDS011;20292;50.944;4.034;2022-10-04T06:29:00;26.55;;;11.75;;
31130;SDS011;20292;50.944;4.034;2022-10-04T06:39:11;24.55;;;11.85;;
31130;SDS011;20292;50.944;4.034;2022-10-04T06:55:41;25.98;;;10.80;;
31130;SDS011;20292;50.944;4.034;2022-10-04T06:58:30;25.20;;;11.40;;
31130;SDS011;20292;50.944;4.034;2022-10-04T07:06:35;21.30;;;10.88;;
31130;SDS011;20292;50.944;4.034;2022-10-04T07:09:13;27.40;;;10.80;;
31130;SDS011;20292;50.944;4.034;2022-10-04T07:11:48;24.40;;;10.95;;
31130;SDS011;20292;50.944;4.034;2022-10-04T07:14:26;24.35;;;10.40;;
31130;SDS011;20292;50.944;4.034;2022-10-04T07:16:57;22.55;;;10.25;;
31130;SDS011;20292;50.944;4.034;2022-10-04T07:19:36;25.40;;;10.43;;
31130;SDS011;20292;50.944;4.034;2022-10-04T07:27:02;27.05;;;10.23;;
31130;SDS011;20292;50.944;4.034;2022-10-04T07:29:35;22.00;;;11.07;;
31130;SDS011;20292;50.944;4.034;2022-10-04T07:34:35;27.50;;;10.57;;
31130;SDS011;20292;50.944;4.034;2022-10-04T07:37:08;20.15;;;9.80;;
31130;SDS011;20292;50.944;4.034;2022-10-04T07:39:41;22.33;;;9.93;;
31130;SDS011;20292;50.944;4.034;2022-10-04T07:42:18;19.63;;;9.30;;
31130;SDS011;20292;50.944;4.034;2022-10-04T07:47:39;21.80;;;10.40;;
31130;SDS011;20292;50.944;4.034;2022-10-04T07:50:25;20.95;;;10.48;;
31130;SDS011;20292;50.944;4.034;2022-10-04T07:53:10;35.50;;;18.00;;
31130;SDS011;20292;50.944;4.034;2022-10-04T08:01:22;24.92;;;9.90;;
31130;SDS011;20292;50.944;4.034;2022-10-04T08:07:18;18.55;;;9.50;;
31130;SDS011;20292;50.944;4.034;2022-10-04T08:17:56;16.30;;;8.00;;
31130;SDS011;20292;50.944;4.034;2022-10-04T08:20:47;19.05;;;7.65;;
31130;SDS011;20292;50.944;4.034;2022-10-04T08:26:19;16.05;;;7.30;;
31130;SDS011;20292;50.944;4.034;2022-10-04T08:29:04;15.57;;;7.03;;
31130;SDS011;20292;50.944;4.034;2022-10-04T08:55:16;27.27;;;9.70;;
31130;SDS011;20292;50.944;4.034;2022-10-04T08:58:11;22.38;;;8.90;;
31130;SDS011;20292;50.944;4.034;2022-10-04T09:28:34;24.42;;;8.43;;
31130;SDS011;20292;50.944;4.034;2022-10-04T09:34:16;19.90;;;8.82;;
31130;SDS011;20292;50.944;4.034;2022-10-04T09:37:07;22.27;;;8.95;;
31130;SDS011;20292;50.944;4.034;2022-10-04T09:42:28;18.75;;;8.80;;
31130;SDS011;20292;50.944;4.034;2022-10-04T09:45:30;18.92;;;8.75;;
31130;SDS011;20292;50.944;4.034;2022-10-04T09:50:57;20.52;;;9.75;;
31130;SDS011;20292;50.944;4.034;2022-10-04T09:57:00;18.38;;;8.77;;
31130;SDS011;20292;50.944;4.034;2022-10-04T10:00:14;12.98;;;7.78;;
31130;SDS011;20292;50.944;4.034;2022-10-04T10:02:42;20.50;;;8.00;;
31130;SDS011;20292;50.944;4.034;2022-10-04T10:05:29;21.63;;;10.65;;
31130;SDS011;20292;50.944;4.034;2022-10-04T10:08:35;16.43;;;7.73;;
31130;SDS011;20292;50.944;4.034;2022-10-04T10:17:23;15.50;;;6.60;;
31130;SDS011;20292;50.944;4.034;2022-10-04T10:31:45;24.10;;;8.27;;
31130;SDS011;20292;50.944;4.034;2022-10-04T10:43:14;26.05;;;7.35;;
31130;SDS011;20292;50.944;4.034;2022-10-04T10:48:26;14.38;;;6.38;;
31130;SDS011;20292;50.944;4.034;2022-10-04T10:57:18;11.60;;;6.28;;
31130;SDS011;20292;50.944;4.034;2022-10-04T11:25:54;11.77;;;6.03;;
31130;SDS011;20292;50.944;4.034;2022-10-04T11:53:43;11.60;;;5.15;;
31130;SDS011;20292;50.944;4.034;2022-10-04T12:07:09;12.00;;;5.32;;
31130;SDS011;20292;50.944;4.034;2022-10-04T12:33:15;12.65;;;4.57;;
31130;SDS011;20292;50.944;4.034;2022-10-04T12:38:44;13.70;;;5.75;;
31130;SDS011;20292;50.944;4.034;2022-10-04T12:49:52;9.85;;;5.25;;
31130;SDS011;20292;50.944;4.034;2022-10-04T12:52:23;8.50;;;4.97;;
31130;SDS011;20292;50.944;4.034;2022-10-04T12:54:54;9.63;;;5.28;;
31130;SDS011;20292;50.944;4.034;2022-10-04T13:10:50;20.88;;;11.77;;
31130;SDS011;20292;50.944;4.034;2022-10-04T13:13:32;6.75;;;3.95;;
31130;SDS011;20292;50.944;4.034;2022-10-04T13:19:16;107.93;;;16.13;;
31130;SDS011;20292;50.944;4.034;2022-10-04T13:24:47;40.17;;;8.05;;
31130;SDS011;20292;50.944;4.034;2022-10-04T13:27:21;16.63;;;4.93;;
31130;SDS011;20292;50.944;4.034;2022-10-04T13:29:51;9.18;;;4.18;;
31130;SDS011;20292;50.944;4.034;2022-10-04T13:32:29;22.20;;;5.00;;
31130;SDS011;20292;50.944;4.034;2022-10-04T13:47:17;11.75;;;3.35;;
31130;SDS011;20292;50.944;4.034;2022-10-04T13:58:52;16.80;;;5.47;;
31130;SDS011;20292;50.944;4.034;2022-10-04T14:01:51;12.05;;;3.83;;
31130;SDS011;20292;50.944;4.034;2022-10-04T14:46:38;15.18;;;2.97;;
31130;SDS011;20292;50.944;4.034;2022-10-04T14:49:38;8.00;;;2.75;;
31130;SDS011;20292;50.944;4.034;2022-10-04T14:55:09;13.85;;;3.67;;
31130;SDS011;20292;50.944;4.034;2022-10-04T15:03:47;22.02;;;4.03;;
31130;SDS011;20292;50.944;4.034;2022-10-04T15:06:27;11.02;;;3.30;;
31130;SDS011;20292;50.944;4.034;2022-10-04T15:17:42;9.02;;;3.45;;
31130;SDS011;20292;50.944;4.034;2022-10-04T15:20:27;11.23;;;5.78;;
31130;SDS011;20292;50.944;4.034;2022-10-04T15:36:49;19.27;;;7.57;;
31130;SDS011;20292;50.944;4.034;2022-10-04T15:47:48;12.00;;;4.65;;
31130;SDS011;20292;50.944;4.034;2022-10-04T15:52:52;8.45;;;3.85;;
31130;SDS011;20292;50.944;4.034;2022-10-04T15:55:47;13.05;;;5.28;;
31130;SDS011;20292;50.944;4.034;2022-10-04T16:06:57;34.72;;;6.05;;
31130;SDS011;20292;50.944;4.034;2022-10-04T16:09:41;12.43;;;4.57;;
31130;SDS011;20292;50.944;4.034;2022-10-04T16:15:30;14.98;;;4.40;;
31130;SDS011;20292;50.944;4.034;2022-10-04T16:29:34;8.18;;;4.07;;
31130;SDS011;20292;50.944;4.034;2022-10-04T16:32:26;22.42;;;12.82;;
31130;SDS011;20292;50.944;4.034;2022-10-04T16:48:36;12.50;;;5.05;;
31130;SDS011;20292;50.944;4.034;2022-10-04T16:59:01;7.63;;;4.63;;
31130;SDS011;20292;50.944;4.034;2022-10-04T17:01:31;9.77;;;5.35;;
31130;SDS011;20292;50.944;4.034;2022-10-04T17:06:47;12.85;;;5.00;;
31130;SDS011;20292;50.944;4.034;2022-10-04T17:12:32;8.20;;;4.90;;
31130;SDS011;20292;50.944;4.034;2022-10-04T17:20:16;9.18;;;5.00;;
31130;SDS011;20292;50.944;4.034;2022-10-04T17:28:16;10.55;;;6.07;;
31130;SDS011;20292;50.944;4.034;2022-10-04T17:30:56;11.05;;;5.82;;
31130;SDS011;20292;50.944;4.034;2022-10-04T17:41:31;14.57;;;7.22;;
31130;SDS011;20292;50.944;4.034;2022-10-04T17:47:10;15.07;;;8.07;;
31130;SDS011;20292;50.944;4.034;2022-10-04T17:50:11;14.07;;;8.25;;
31130;SDS011;20292;50.944;4.034;2022-10-04T17:52:59;16.10;;;8.00;;
31130;SDS011;20292;50.944;4.034;2022-10-04T17:55:54;13.15;;;7.63;;
31130;SDS011;20292;50.944;4.034;2022-10-04T17:58:28;14.23;;;7.63;;
31130;SDS011;20292;50.944;4.034;2022-10-04T18:01:14;11.85;;;7.20;;
31130;SDS011;20292;50.944;4.034;2022-10-04T18:03:55;17.15;;;7.40;;
31130;SDS011;20292;50.944;4.034;2022-10-04T18:06:30;11.88;;;7.47;;
31130;SDS011;20292;50.944;4.034;2022-10-04T18:14:45;14.55;;;8.40;;
31130;SDS011;20292;50.944;4.034;2022-10-04T18:22:55;15.25;;;8.32;;
31130;SDS011;20292;50.944;4.034;2022-10-04T18:25:28;12.35;;;7.78;;
31130;SDS011;20292;50.944;4.034;2022-10-04T18:28:10;13.55;;;8.00;;
31130;SDS011;20292;50.944;4.034;2022-10-04T18:33:16;12.68;;;7.05;;
31130;SDS011;20292;50.944;4.034;2022-10-04T18:36:28;12.82;;;8.30;;
31130;SDS011;20292;50.944;4.034;2022-10-04T18:38:41;15.35;;;7.80;;
31130;SDS011;20292;50.944;4.034;2022-10-04T18:41:16;14.63;;;8.60;;
31130;SDS011;20292;50.944;4.034;2022-10-04T18:43:51;12.55;;;7.65;;
31130;SDS011;20292;50.944;4.034;2022-10-04T18:46:37;12.48;;;7.53;;
31130;SDS011;20292;50.944;4.034;2022-10-04T18:49:20;12.77;;;7.53;;
31130;SDS011;20292;50.944;4.034;2022-10-04T18:54:45;12.90;;;7.35;;
31130;SDS011;20292;50.944;4.034;2022-10-04T19:00:20;13.18;;;7.63;;
31130;SDS011;20292;50.944;4.034;2022-10-04T19:03:06;17.05;;;8.60;;
31130;SDS011;20292;50.944;4.034;2022-10-04T19:06:03;15.02;;;8.18;;
31130;SDS011;20292;50.944;4.034;2022-10-04T19:08:38;18.02;;;9.05;;
31130;SDS011;20292;50.944;4.034;2022-10-04T19:14:24;12.27;;;7.73;;
31130;SDS011;20292;50.944;4.034;2022-10-04T19:22:42;17.50;;;8.18;;
31130;SDS011;20292;50.944;4.034;2022-10-04T19:30:21;18.55;;;8.60;;
31130;SDS011;20292;50.944;4.034;2022-10-04T19:32:55;15.73;;;8.40;;
31130;SDS011;20292;50.944;4.034;2022-10-04T19:35:46;16.13;;;8.38;;
31130;SDS011;20292;50.944;4.034;2022-10-04T19:46:27;15.25;;;9.05;;
31130;SDS011;20292;50.944;4.034;2022-10-04T19:49:02;17.95;;;9.27;;
31130;SDS011;20292;50.944;4.034;2022-10-04T19:51:48;18.58;;;9.90;;
31130;SDS011;20292;50.944;4.034;2022-10-04T19:54:30;18.83;;;8.95;;
31130;SDS011;20292;50.944;4.034;2022-10-04T19:57:03;16.40;;;8.52;;
31130;SDS011;20292;50.944;4.034;2022-10-04T19:59:40;12.43;;;8.20;;
31130;SDS011;20292;50.944;4.034;2022-10-04T20:02:10;14.85;;;8.30;;
31130;SDS011;20292;50.944;4.034;2022-10-04T20:04:37;12.98;;;8.18;;
31130;SDS011;20292;50.944;4.034;2022-10-04T20:07:15;14.07;;;8.00;;
31130;SDS011;20292;50.944;4.034;2022-10-04T20:09:49;13.18;;;7.75;;
31130;SDS011;20292;50.944;4.034;2022-10-04T20:12:31;13.52;;;7.40;;
31130;SDS011;20292;50.944;4.034;2022-10-04T20:17:59;14.00;;;7.50;;
31130;SDS011;20292;50.944;4.034;2022-10-04T20:23:07;14.30;;;8.40;;
31130;SDS011;20292;50.944;4.034;2022-10-04T20:28:08;14.00;;;8.38;;
31130;SDS011;20292;50.944;4.034;2022-10-04T20:30:48;15.15;;;7.75;;
31130;SDS011;20292;50.944;4.034;2022-10-04T20:38:44;10.32;;;7.68;;
31130;SDS011;20292;50.944;4.034;2022-10-04T20:43:56;15.68;;;7.80;;
31130;SDS011;20292;50.944;4.034;2022-10-04T20:46:25;12.48;;;7.95;;
31130;SDS011;20292;50.944;4.034;2022-10-04T20:48:55;13.73;;;8.13;;
31130;SDS011;20292;50.944;4.034;2022-10-04T20:51:21;11.90;;;7.45;;
31130;SDS011;20292;50.944;4.034;2022-10-04T20:53:48;13.30;;;7.85;;
31130;SDS011;20292;50.944;4.034;2022-10-04T20:59:02;11.82;;;7.50;;
31130;SDS011;20292;50.944;4.034;2022-10-04T21:01:29;13.00;;;8.23;;
31130;SDS011;20292;50.944;4.034;2022-10-04T21:04:18;16.27;;;7.88;;
31130;SDS011;20292;50.944;4.034;2022-10-04T21:06:56;13.23;;;7.93;;
31130;SDS011;20292;50.944;4.034;2022-10-04T21:09:26;13.35;;;8.23;;
31130;SDS011;20292;50.944;4.034;2022-10-04T21:11:54;12.88;;;7.88;;
31130;SDS011;20292;50.944;4.034;2022-10-04T21:14:21;13.25;;;8.10;;
31130;SDS011;20292;50.944;4.034;2022-10-04T21:16:49;12.80;;;7.65;;
31130;SDS011;20292;50.944;4.034;2022-10-04T21:20:02;13.63;;;7.50;;
31130;SDS011;20292;50.944;4.034;2022-10-04T21:22:04;14.95;;;7.47;;
31130;SDS011;20292;50.944;4.034;2022-10-04T21:27:04;12.00;;;7.40;;
31130;SDS011;20292;50.944;4.034;2022-10-04T21:29:35;14.27;;;8.15;;
31130;SDS011;20292;50.944;4.034;2022-10-04T21:32:02;11.73;;;7.65;;
31130;SDS011;20292;50.944;4.034;2022-10-04T21:34:28;16.77;;;7.97;;
31130;SDS011;20292;50.944;4.034;2022-10-04T21:36:53;12.55;;;7.57;;
31130;SDS011;20292;50.944;4.034;2022-10-04T21:39:19;13.05;;;7.38;;
31130;SDS011;20292;50.944;4.034;2022-10-04T21:41:45;14.70;;;8.20;;
31130;SDS011;20292;50.944;4.034;2022-10-04T21:44:11;11.65;;;7.50;;
31130;SDS011;20292;50.944;4.034;2022-10-04T21:46:36;14.15;;;7.80;;
31130;SDS011;20292;50.944;4.034;2022-10-04T21:49:02;11.65;;;7.45;;
31130;SDS011;20292;50.944;4.034;2022-10-04T21:51:28;14.98;;;7.70;;
31130;SDS011;20292;50.944;4.034;2022-10-04T21:54:00;13.55;;;8.00;;
31130;SDS011;20292;50.944;4.034;2022-10-04T21:56:26;13.38;;;7.65;;
31130;SDS011;20292;50.944;4.034;2022-10-04T21:58:52;11.88;;;7.60;;
31130;SDS011;20292;50.944;4.034;2022-10-04T22:01:17;12.93;;;8.25;;
31130;SDS011;20292;50.944;4.034;2022-10-04T22:03:43;12.65;;;7.75;;
31130;SDS011;20292;50.944;4.034;2022-10-04T22:06:09;13.00;;;7.20;;
31130;SDS011;20292;50.944;4.034;2022-10-04T22:08:34;11.52;;;6.82;;
31130;SDS011;20292;50.944;4.034;2022-10-04T22:11:00;10.38;;;6.68;;
31130;SDS011;20292;50.944;4.034;2022-10-04T22:13:25;13.00;;;7.07;;
31130;SDS011;20292;50.944;4.034;2022-10-04T22:15:51;12.93;;;7.13;;
31130;SDS011;20292;50.944;4.034;2022-10-04T22:18:17;10.63;;;6.47;;
31130;SDS011;20292;50.944;4.034;2022-10-04T22:20:42;14.55;;;7.53;;
31130;SDS011;20292;50.944;4.034;2022-10-04T22:23:14;10.50;;;6.70;;
31130;SDS011;20292;50.944;4.034;2022-10-04T22:25:42;10.60;;;6.13;;
31130;SDS011;20292;50.944;4.034;2022-10-04T22:28:20;10.07;;;6.93;;
31130;SDS011;20292;50.944;4.034;2022-10-04T22:30:50;11.25;;;7.88;;
31130;SDS011;20292;50.944;4.034;2022-10-04T22:33:23;14.30;;;7.07;;
31130;SDS011;20292;50.944;4.034;2022-10-04T22:36:23;11.38;;;6.78;;
31130;SDS011;20292;50.944;4.034;2022-10-04T22:41:33;12.85;;;6.93;;
31130;SDS011;20292;50.944;4.034;2022-10-04T22:44:09;12.48;;;6.40;;
31130;SDS011;20292;50.944;4.034;2022-10-04T22:46:36;13.23;;;7.18;;
31130;SDS011;20292;50.944;4.034;2022-10-04T22:49:09;11.77;;;7.03;;
31130;SDS011;20292;50.944;4.034;2022-10-04T22:51:37;18.55;;;7.18;;
31130;SDS011;20292;50.944;4.034;2022-10-04T22:54:10;11.10;;;6.72;;
31130;SDS011;20292;50.944;4.034;2022-10-04T22:56:39;11.40;;;6.53;;
31130;SDS011;20292;50.944;4.034;2022-10-04T22:59:07;12.65;;;6.55;;
31130;SDS011;20292;50.944;4.034;2022-10-04T23:01:34;10.93;;;7.00;;
31130;SDS011;20292;50.944;4.034;2022-10-04T23:04:00;10.30;;;6.90;;
31130;SDS011;20292;50.944;4.034;2022-10-04T23:06:26;13.20;;;7.05;;
31130;SDS011;20292;50.944;4.034;2022-10-04T23:08:51;8.93;;;6.50;;
31130;SDS011;20292;50.944;4.034;2022-10-04T23:11:17;12.50;;;7.95;;
31130;SDS011;20292;50.944;4.034;2022-10-04T23:13:43;11.30;;;7.38;;
31130;SDS011;20292;50.944;4.034;2022-10-04T23:16:13;11.30;;;6.88;;
31130;SDS011;20292;50.944;4.034;2022-10-04T23:18:44;12.15;;;6.60;;
31130;SDS011;20292;50.944;4.034;2022-10-04T23:23:43;12.90;;;6.70;;
31130;SDS011;20292;50.944;4.034;2022-10-04T23:26:14;12.93;;;7.50;;
31130;SDS011;20292;50.944;4.034;2022-10-04T23:28:46;12.52;;;7.10;;
31130;SDS011;20292;50.944;4.034;2022-10-04T23:31:18;10.73;;;6.85;;
31130;SDS011;20292;50.944;4.034;2022-10-04T23:33:46;9.90;;;6.95;;
31130;SDS011;20292;50.944;4.034;2022-10-04T23:36:13;14.48;;;7.18;;
31130;SDS011;20292;50.944;4.034;2022-10-04T23:38:41;10.15;;;7.03;;
31130;SDS011;20292;50.944;4.034;2022-10-04T23:41:20;11.25;;;7.07;;
31130;SDS011;20292;50.944;4.034;2022-10-04T23:43:46;12.18;;;7.40;;
31130;SDS011;20292;50.944;4.034;2022-10-04T23:46:18;13.43;;;7.80;;
31130;SDS011;20292;50.944;4.034;2022-10-04T23:48:47;12.80;;;6.93;;
31130;SDS011;20292;50.944;4.034;2022-10-04T23:51:14;17.02;;;7.97;;
31130;SDS011;20292;50.944;4.034;2022-10-04T23:53:42;10.23;;;7.38;;
31130;SDS011;20292;50.944;4.034;2022-10-04T23:56:13;15.25;;;7.20;;
31130;SDS011;20292;50.944;4.034;2022-10-04T23:58:40;10.38;;;7.32;;
